createdAt,value
2022-08-24T00:02:06.897Z,99536.78
2022-08-24T00:04:35.978Z,99542.63
2022-08-24T00:07:15.876Z,99538.13
2022-08-24T00:09:58.631Z,99532.81
2022-08-24T00:12:27.568Z,99539.59
2022-08-24T00:14:56.857Z,99539.34
2022-08-24T00:17:25.500Z,99545.97
2022-08-24T00:19:54.629Z,99554.41
2022-08-24T00:22:23.175Z,99547.31
2022-08-24T00:24:51.760Z,99547.31
2022-08-24T00:27:21.856Z,99546.47
2022-08-24T00:29:50.637Z,99545.50
2022-08-24T00:32:19.291Z,99552.25
2022-08-24T00:34:54.107Z,99552.16
2022-08-24T00:37:29.287Z,99552.94
2022-08-24T00:39:57.897Z,99553.78
2022-08-24T00:42:28.079Z,99546.09
2022-08-24T00:44:56.905Z,99550.34
2022-08-24T00:47:33.476Z,99557.34
2022-08-24T00:50:07.216Z,99556.44
2022-08-24T00:52:41.259Z,99558.25
2022-08-24T00:55:14.118Z,99559.97
2022-08-24T00:57:48.617Z,99564.41
2022-08-24T01:00:20.494Z,99562.72
2022-08-24T01:02:53.371Z,99561.81
2022-08-24T01:05:22.625Z,99556.63
2022-08-24T01:07:51.383Z,99554.03
2022-08-24T01:10:25.326Z,99554.97
2022-08-24T01:13:01.617Z,99554.03
2022-08-24T01:15:31.955Z,99552.38
2022-08-24T01:18:12.902Z,99556.72
2022-08-24T01:20:41.725Z,99551.72
2022-08-24T01:23:17.745Z,99550.94
2022-08-24T01:25:47.956Z,99561.47
2022-08-24T01:28:27.203Z,99553.91
2022-08-24T01:30:56.604Z,99553.81
2022-08-24T01:33:29.038Z,99549.47
2022-08-24T01:36:03.149Z,99553.84
2022-08-24T01:38:33.933Z,99551.38
2022-08-24T01:41:04.829Z,99566.06
2022-08-24T01:43:37.097Z,99566.91
2022-08-24T01:46:09.568Z,99570.38
2022-08-24T01:48:38.226Z,99567.13
2022-08-24T01:51:07.966Z,99570.50
2022-08-24T01:53:37.044Z,99568.72
2022-08-24T01:56:08.905Z,99568.59
2022-08-24T01:58:37.701Z,99559.94
2022-08-24T02:01:07.526Z,99562.44
2022-08-24T02:03:36.236Z,99565.16
2022-08-24T02:06:05.709Z,99565.22
2022-08-24T02:08:36.449Z,99583.25
2022-08-24T02:11:10.059Z,99586.75
2022-08-24T02:13:42.783Z,99591.19
2022-08-24T02:16:11.829Z,99591.31
2022-08-24T02:18:41.495Z,99586.16
2022-08-24T02:21:10.766Z,99587.03
2022-08-24T02:23:40.567Z,99585.31
2022-08-24T02:26:12.474Z,99591.31
2022-08-24T02:28:42.808Z,99575.91
2022-08-24T02:31:14.036Z,99594.91
2022-08-24T02:33:45.045Z,99592.28
2022-08-24T02:36:25.923Z,99592.31
2022-08-24T02:39:00.519Z,99600.06
2022-08-24T02:41:30.767Z,99592.28
2022-08-24T02:43:59.811Z,99588.75
2022-08-24T02:46:30.636Z,99587.13
2022-08-24T02:49:11.311Z,99585.50
2022-08-24T02:51:45.715Z,99584.78
2022-08-24T02:54:22.868Z,99586.69
2022-08-24T02:56:55.985Z,99585.00
2022-08-24T02:59:24.927Z,99581.00
2022-08-24T03:01:54.840Z,99579.56
2022-08-24T03:04:25.790Z,99585.66
2022-08-24T03:06:54.327Z,99583.97
2022-08-24T03:09:23.676Z,99594.31
2022-08-24T03:11:53.448Z,99596.19
2022-08-24T03:14:23.694Z,99592.91
2022-08-24T03:16:52.545Z,99593.91
2022-08-24T03:19:23.565Z,99599.38
2022-08-24T03:21:53.786Z,99593.53
2022-08-24T03:24:24.644Z,99592.69
2022-08-24T03:26:53.507Z,99594.38
2022-08-24T03:29:24.174Z,99582.41
2022-08-24T03:31:53.440Z,99589.13
2022-08-24T03:34:22.336Z,99594.84
2022-08-24T03:36:50.973Z,99595.47
2022-08-24T03:39:20.065Z,99592.03
2022-08-24T03:41:51.906Z,99603.31
2022-08-24T03:44:23.194Z,99598.31
2022-08-24T03:46:56.395Z,99594.19
2022-08-24T03:49:27.727Z,99595.13
2022-08-24T03:51:56.449Z,99599.38
2022-08-24T03:54:25.605Z,99599.00
2022-08-24T03:56:54.347Z,99598.00
2022-08-24T03:59:23.874Z,99596.19
2022-08-24T04:01:58.306Z,99590.31
2022-08-24T04:04:29.795Z,99590.56
2022-08-24T04:06:58.707Z,99600.13
2022-08-24T04:09:29.445Z,99608.66
2022-08-24T04:11:59.511Z,99614.47
2022-08-24T04:14:28.708Z,99620.28
2022-08-24T04:17:06.187Z,99609.81
2022-08-24T04:19:58.109Z,99610.72
2022-08-24T04:22:34.421Z,99621.88
2022-08-24T04:25:09.067Z,99610.50
2022-08-24T04:27:41.848Z,99611.19
2022-08-24T04:30:14.437Z,99609.41
2022-08-24T04:33:11.236Z,99616.03
2022-08-24T04:35:41.985Z,99619.44
2022-08-24T04:38:11.563Z,99611.53
2022-08-24T04:40:47.116Z,99616.44
2022-08-24T04:43:20.115Z,99619.88
2022-08-24T04:45:50.922Z,99622.25
2022-08-24T04:48:23.566Z,99620.47
2022-08-24T04:50:53.945Z,99628.88
2022-08-24T04:53:22.537Z,99620.06
2022-08-24T04:55:53.215Z,99621.59
2022-08-24T04:58:22.307Z,99629.97
2022-08-24T05:00:51.133Z,99622.91
2022-08-24T05:03:20.036Z,99618.47
2022-08-24T05:05:53.115Z,99617.47
2022-08-24T05:08:22.058Z,99620.88
2022-08-24T05:10:51.991Z,99617.34
2022-08-24T05:13:22.444Z,99621.56
2022-08-24T05:15:51.237Z,99620.56
2022-08-24T05:18:20.293Z,99628.22
2022-08-24T05:20:50.534Z,99622.81
2022-08-24T05:23:20.713Z,99625.16
2022-08-24T05:25:49.456Z,99613.72
2022-08-24T05:28:18.511Z,99620.38
2022-08-24T05:30:48.139Z,99617.59
2022-08-24T05:33:19.996Z,99620.78
2022-08-24T05:35:50.441Z,99622.28
2022-08-24T05:38:19.695Z,99622.16
2022-08-24T05:40:48.348Z,99620.16
2022-08-24T05:43:17.546Z,99623.34
2022-08-24T05:45:46.736Z,99618.81
2022-08-24T05:48:16.196Z,99623.63
2022-08-24T05:51:11.337Z,99598.66
2022-08-24T05:53:51.574Z,99623.56
2022-08-24T05:56:23.728Z,99621.63
2022-08-24T05:58:53.164Z,99624.88
2022-08-24T06:01:25.605Z,99627.28
2022-08-24T06:03:56.156Z,99623.50
2022-08-24T06:06:29.095Z,99610.19
2022-08-24T06:09:00.171Z,99622.81
2022-08-24T06:11:31.411Z,99613.28
2022-08-24T06:14:07.208Z,99609.78
2022-08-24T06:16:43.081Z,99611.97
2022-08-24T06:19:14.290Z,99603.69
2022-08-24T06:21:48.319Z,99603.25
2022-08-24T06:24:17.788Z,99599.47
2022-08-24T06:26:58.149Z,99599.22
2022-08-24T06:29:30.945Z,99603.22
2022-08-24T06:32:11.266Z,99603.69
2022-08-24T06:34:40.208Z,99609.16
2022-08-24T06:37:10.507Z,99607.06
2022-08-24T06:39:40.404Z,99612.53
2022-08-24T06:42:09.070Z,99613.78
2022-08-24T06:44:37.956Z,99612.56
2022-08-24T06:47:15.032Z,99604.03
2022-08-24T06:49:44.068Z,99612.84
2022-08-24T06:52:14.292Z,99620.13
2022-08-24T06:54:43.468Z,99624.84
2022-08-24T06:57:12.290Z,99633.72
2022-08-24T06:59:43.294Z,99623.03
2022-08-24T07:02:16.177Z,99628.72
2022-08-24T07:04:46.249Z,99625.00
2022-08-24T07:07:27.552Z,99632.59
2022-08-24T07:09:56.197Z,99635.56
2022-08-24T07:12:27.260Z,99632.41
2022-08-24T07:14:56.878Z,99633.34
2022-08-24T07:17:25.550Z,99636.22
2022-08-24T07:19:54.321Z,99628.41
2022-08-24T07:22:35.461Z,99638.75
2022-08-24T07:25:04.718Z,99634.06
2022-08-24T07:27:35.664Z,99637.28
2022-08-24T07:30:25.830Z,99636.47
2022-08-24T07:32:54.377Z,99640.16
2022-08-24T07:35:23.148Z,99636.28
2022-08-24T07:37:54.055Z,99635.03
2022-08-24T07:40:23.348Z,99635.47
2022-08-24T07:42:53.888Z,99635.09
2022-08-24T07:45:23.789Z,99635.78
2022-08-24T07:47:55.769Z,99632.94
2022-08-24T07:50:37.551Z,99638.97
2022-08-24T07:53:11.170Z,99634.91
2022-08-24T07:55:46.107Z,99636.13
2022-08-24T07:58:15.709Z,99637.00
2022-08-24T08:00:48.139Z,99639.25
2022-08-24T08:03:16.879Z,99640.78
2022-08-24T08:05:49.810Z,99650.84
2022-08-24T08:08:20.463Z,99653.41
2022-08-24T08:10:50.885Z,99661.59
2022-08-24T08:13:21.788Z,99653.16
2022-08-24T08:15:50.641Z,99648.88
2022-08-24T08:18:20.561Z,99648.56
2022-08-24T08:20:50.311Z,99649.88
2022-08-24T08:23:30.928Z,99649.31
2022-08-24T08:26:15.626Z,99641.69
2022-08-24T08:29:13.269Z,99657.16
2022-08-24T08:31:43.458Z,99658.47
2022-08-24T08:34:12.833Z,99652.50
2022-08-24T08:36:42.599Z,99658.66
2022-08-24T08:39:17.732Z,99651.75
2022-08-24T08:42:15.185Z,99649.34
2022-08-24T08:45:04.020Z,99653.06
2022-08-24T08:48:10.963Z,99654.84
2022-08-24T08:51:12.108Z,99648.38
2022-08-24T08:54:10.251Z,99649.09
2022-08-24T08:56:59.370Z,99643.66
2022-08-24T08:59:48.781Z,99650.16
2022-08-24T09:02:33.624Z,99651.66
2022-08-24T09:05:36.533Z,99649.91
2022-08-24T09:08:18.531Z,99652.47
2022-08-24T09:10:57.919Z,99653.31
2022-08-24T09:13:43.279Z,99653.44
2022-08-24T09:16:33.330Z,99650.03
2022-08-24T09:19:25.872Z,99658.22
2022-08-24T09:22:15.799Z,99651.28
2022-08-24T09:25:11.899Z,99654.03
2022-08-24T09:28:16.021Z,99652.84
2022-08-24T09:31:06.551Z,99654.44
2022-08-24T09:33:44.373Z,99652.13
2022-08-24T09:36:20.349Z,99646.25
2022-08-24T09:39:00.330Z,99644.69
2022-08-24T09:41:55.133Z,99641.00
2022-08-24T09:44:45.593Z,99637.41
2022-08-24T09:47:40.050Z,99635.31
2022-08-24T09:50:28.981Z,99632.91
2022-08-24T09:53:21.701Z,99625.88
2022-08-24T09:56:06.611Z,99636.44
2022-08-24T09:58:51.210Z,99631.66
2022-08-24T10:01:28.387Z,99638.34
2022-08-24T10:04:12.912Z,99631.50
2022-08-24T10:06:55.716Z,99619.59
2022-08-24T10:09:47.961Z,99619.59
2022-08-24T10:12:27.399Z,99616.91
2022-08-24T10:15:05.912Z,99612.66
2022-08-24T10:17:48.413Z,99604.91
2022-08-24T10:20:24.869Z,99593.22
2022-08-24T10:23:12.280Z,99595.41
2022-08-24T10:25:48.474Z,99596.00
2022-08-24T10:28:49.450Z,99599.19
2022-08-24T10:31:23.887Z,99595.78
2022-08-24T10:34:08.538Z,99595.94
2022-08-24T10:37:00.803Z,99592.66
2022-08-24T10:39:51.973Z,99591.63
2022-08-24T10:42:51.624Z,99593.09
2022-08-24T10:45:39.260Z,99593.56
2022-08-24T10:48:29.249Z,99596.56
2022-08-24T10:51:04.810Z,99594.53
2022-08-24T10:53:37.005Z,99593.22
2022-08-24T10:56:10.106Z,99598.09
2022-08-24T10:58:51.634Z,99593.09
2022-08-24T11:01:25.018Z,99605.97
2022-08-24T11:04:04.704Z,99604.59
2022-08-24T11:06:36.313Z,99604.44
2022-08-24T11:09:14.825Z,99586.81
2022-08-24T11:11:48.663Z,99597.47
2022-08-24T11:14:27.748Z,99592.81
2022-08-24T11:17:16.303Z,99598.91
2022-08-24T11:19:45.483Z,99596.28
2022-08-24T11:22:30.402Z,99601.75
2022-08-24T11:25:05.082Z,99597.00
2022-08-24T11:27:38.349Z,99600.84
2022-08-24T11:30:16.370Z,99605.19
2022-08-24T11:32:46.964Z,99612.44
2022-08-24T11:35:26.186Z,99601.22
2022-08-24T11:37:56.333Z,99598.59
2022-08-24T11:40:35.966Z,99599.44
2022-08-24T11:43:23.723Z,99597.19
2022-08-24T11:46:08.855Z,99586.41
2022-08-24T11:48:49.133Z,99584.97
2022-08-24T11:51:30.112Z,99589.38
2022-08-24T11:54:06.525Z,99595.00
2022-08-24T11:56:46.883Z,99596.22
2022-08-24T11:59:26.215Z,99593.81
2022-08-24T12:01:58.956Z,99593.34
2022-08-24T12:04:43.628Z,99586.91
2022-08-24T12:07:21.837Z,99590.69
2022-08-24T12:10:04.012Z,99589.03
2022-08-24T12:12:43.989Z,99582.56
2022-08-24T12:15:18.384Z,99587.13
2022-08-24T12:17:54.434Z,99595.00
2022-08-24T12:20:32.147Z,99585.19
2022-08-24T12:23:07.568Z,99583.28
2022-08-24T12:25:48.459Z,99581.28
2022-08-24T12:28:24.206Z,99574.00
2022-08-24T12:30:56.186Z,99563.38
2022-08-24T12:33:32.685Z,99567.94
2022-08-24T12:36:15.006Z,99566.91
2022-08-24T12:38:49.136Z,99566.22
2022-08-24T12:41:22.542Z,99569.16
2022-08-24T12:43:57.257Z,99570.97
2022-08-24T12:46:27.932Z,99559.13
2022-08-24T12:49:02.470Z,99570.84
2022-08-24T12:51:51.806Z,99565.97
2022-08-24T12:54:41.264Z,99556.84
2022-08-24T12:57:16.963Z,99558.25
2022-08-24T12:59:50.262Z,99556.84
2022-08-24T13:02:35.165Z,99554.16
2022-08-24T13:05:11.823Z,99560.41
2022-08-24T13:07:46.683Z,99550.63
2022-08-24T13:10:39.227Z,99553.88
2022-08-24T13:13:22.445Z,99552.78
2022-08-24T13:16:03.463Z,99553.72
2022-08-24T13:18:53.814Z,99561.03
2022-08-24T13:21:38.997Z,99556.53
2022-08-24T13:24:29.428Z,99570.78
2022-08-24T13:26:59.356Z,99566.09
2022-08-24T13:29:30.028Z,99576.44
2022-08-24T13:32:01.865Z,99573.13
2022-08-24T13:34:44.524Z,99572.38
2022-08-24T13:37:16.646Z,99572.84
2022-08-24T13:40:15.691Z,99558.56
2022-08-24T13:43:08.367Z,99581.97
2022-08-24T13:45:42.895Z,99572.38
2022-08-24T13:48:29.727Z,99573.84
2022-08-24T13:51:21.206Z,99567.84
2022-08-24T13:54:15.620Z,99575.75
2022-08-24T13:57:09.872Z,99565.13
2022-08-24T14:00:03.786Z,99565.00
2022-08-24T14:02:50.540Z,99553.88
2022-08-24T14:05:34.079Z,99550.09
2022-08-24T14:08:21.328Z,99545.91
2022-08-24T14:11:00.457Z,99543.75
2022-08-24T14:13:37.563Z,99541.81
2022-08-24T14:16:24.170Z,99530.13
2022-08-24T14:19:06.614Z,99537.06
2022-08-24T14:21:43.316Z,99526.03
2022-08-24T14:24:26.934Z,99532.97
2022-08-24T14:27:08.843Z,99533.47
2022-08-24T14:29:42.126Z,99530.88
2022-08-24T14:32:30.878Z,99533.28
2022-08-24T14:35:21.163Z,99527.03
2022-08-24T14:38:01.797Z,99531.53
2022-08-24T14:40:37.276Z,99525.69
2022-08-24T14:43:30.668Z,99526.53
2022-08-24T14:46:10.305Z,99538.97
2022-08-24T14:48:48.923Z,99538.53
2022-08-24T14:51:37.848Z,99537.09
2022-08-24T14:54:21.847Z,99527.41
2022-08-24T14:57:05.453Z,99527.03
2022-08-24T14:59:48.408Z,99535.13
2022-08-24T15:02:59.143Z,99536.66
2022-08-24T15:05:41.388Z,99543.03
2022-08-24T15:08:34.740Z,99537.41
2022-08-24T15:11:12.100Z,99532.63
2022-08-24T15:13:47.127Z,99519.75
2022-08-24T15:16:22.623Z,99528.25
2022-08-24T15:19:01.457Z,99519.94
2022-08-24T15:21:48.022Z,99528.06
2022-08-24T15:24:29.719Z,99535.97
2022-08-24T15:27:11.871Z,99530.59
2022-08-24T15:29:53.980Z,99534.44
2022-08-24T15:32:28.013Z,99544.34
2022-08-24T15:34:59.489Z,99543.63
2022-08-24T15:37:36.250Z,99540.50
2022-08-24T15:40:17.799Z,99539.25
2022-08-24T15:42:51.440Z,99535.97
2022-08-24T15:45:22.171Z,99535.66
2022-08-24T15:47:53.470Z,99533.59
2022-08-24T15:50:26.402Z,99533.22
2022-08-24T15:53:01.214Z,99537.25
2022-08-24T15:55:38.413Z,99550.41
2022-08-24T15:58:35.451Z,99563.19
2022-08-24T16:01:34.028Z,99572.41
2022-08-24T16:04:04.474Z,99587.69
2022-08-24T16:06:40.795Z,99596.97
2022-08-24T16:09:15.730Z,99593.19
2022-08-24T16:11:49.993Z,99593.16
2022-08-24T16:14:31.355Z,99599.13
2022-08-24T16:17:02.117Z,99599.94
2022-08-24T16:19:34.874Z,99604.09
2022-08-24T16:22:06.490Z,99594.97
2022-08-24T16:24:38.869Z,99603.19
2022-08-24T16:27:10.120Z,99593.69
2022-08-24T16:29:56.011Z,99611.25
2022-08-24T16:32:33.072Z,99601.16
2022-08-24T16:35:21.237Z,99593.34
2022-08-24T16:37:52.522Z,99585.97
2022-08-24T16:40:21.477Z,99599.31
2022-08-24T16:42:50.743Z,99600.53
2022-08-24T16:45:23.323Z,99601.75
2022-08-24T16:47:52.121Z,99598.56
2022-08-24T16:50:22.306Z,99597.94
2022-08-24T16:52:56.679Z,99607.19
2022-08-24T16:55:25.564Z,99609.78
2022-08-24T16:57:54.522Z,99616.22
2022-08-24T17:00:24.612Z,99629.00
2022-08-24T17:02:53.476Z,99627.59
2022-08-24T17:05:22.166Z,99640.94
2022-08-24T17:07:52.404Z,99650.38
2022-08-24T17:10:23.430Z,99656.63
2022-08-24T17:12:52.313Z,99662.25
2022-08-24T17:15:22.838Z,99674.81
2022-08-24T17:18:01.797Z,99667.25
2022-08-24T17:20:30.762Z,99671.09
2022-08-24T17:22:59.827Z,99676.56
2022-08-24T17:25:30.293Z,99681.84
2022-08-24T17:28:01.031Z,99677.84
2022-08-24T17:30:30.945Z,99681.34
2022-08-24T17:33:03.623Z,99672.84
2022-08-24T17:35:32.776Z,99683.72
2022-08-24T17:51:09.664Z,99703.22
2022-08-24T17:53:39.340Z,99712.03
2022-08-24T17:56:10.208Z,99726.91
2022-08-24T17:58:59.310Z,99722.94
2022-08-24T18:01:28.890Z,99735.69
2022-08-24T18:03:58.205Z,99731.84
2022-08-24T18:06:33.046Z,99735.69
2022-08-24T18:09:06.992Z,99740.31
2022-08-24T18:11:36.228Z,99738.69
2022-08-24T18:15:09.160Z,99741.53
2022-08-24T18:26:32.501Z,99753.78
2022-08-24T18:38:02.513Z,99757.78
2022-08-24T18:41:37.181Z,99752.84
2022-08-24T19:02:42.284Z,99762.59
2022-08-24T19:05:16.212Z,99758.19
2022-08-24T19:07:58.952Z,99762.59
2022-08-24T19:10:42.889Z,99753.31
2022-08-24T19:13:20.890Z,99767.81
2022-08-24T19:16:12.377Z,99768.69
2022-08-24T19:21:58.299Z,99766.19
2022-08-24T19:24:38.122Z,99765.44
2022-08-24T19:38:44.643Z,99761.97
2022-08-24T19:42:08.406Z,99763.88
2022-08-24T19:45:19.310Z,99765.56
2022-08-24T19:56:27.414Z,99753.91
2022-08-24T19:59:02.054Z,99750.56
2022-08-24T20:01:34.905Z,99749.78
2022-08-24T20:04:06.072Z,99747.94
2022-08-24T20:06:36.115Z,99749.69
2022-08-24T20:09:06.082Z,99747.94
2022-08-24T20:11:36.914Z,99754.91
2022-08-24T20:14:05.424Z,99748.28
2022-08-24T20:16:37.142Z,99757.84
2022-08-24T20:19:06.424Z,99753.41
2022-08-24T20:21:35.015Z,99748.28
2022-08-24T20:24:04.140Z,99750.81
2022-08-24T20:26:39.675Z,99747.34
2022-08-24T20:29:08.444Z,99750.81
2022-08-24T20:31:37.010Z,99752.53
2022-08-24T20:34:05.856Z,99754.34
2022-08-24T20:36:38.335Z,99755.25
2022-08-24T20:39:11.586Z,99752.72
2022-08-24T20:41:42.094Z,99755.41
2022-08-24T20:44:10.823Z,99750.97
2022-08-24T20:46:41.901Z,99755.41
2022-08-24T20:49:17.225Z,99751.25
2022-08-24T20:51:48.688Z,99741.78
2022-08-24T20:54:17.455Z,99747.03
2022-08-24T20:56:47.899Z,99748.78
2022-08-24T20:59:19.114Z,99750.63
2022-08-24T21:01:48.472Z,99746.38
2022-08-24T21:04:17.125Z,99752.47
2022-08-24T21:06:46.530Z,99752.59
2022-08-24T21:09:19.720Z,99754.22
2022-08-24T21:11:49.716Z,99753.41
2022-08-24T21:14:18.967Z,99746.50
2022-08-24T21:16:48.564Z,99750.09
2022-08-24T21:19:17.906Z,99752.91
2022-08-24T21:21:47.126Z,99745.09
2022-08-24T21:24:16.718Z,99743.41
2022-08-24T21:26:45.447Z,99741.75
2022-08-24T21:29:15.794Z,99735.69
2022-08-24T21:32:04.987Z,99739.28
2022-08-24T21:34:43.480Z,99740.19
2022-08-24T21:37:15.549Z,99737.66
2022-08-24T21:39:44.933Z,99748.19
2022-08-24T21:42:13.554Z,99745.78
2022-08-24T21:44:47.276Z,99735.44
2022-08-24T21:47:17.883Z,99739.63
2022-08-24T21:49:46.493Z,99742.31
2022-08-24T21:52:15.714Z,99744.06
2022-08-24T21:54:44.385Z,99744.00
2022-08-24T21:57:13.348Z,99751.88
2022-08-24T21:59:41.986Z,99743.34
2022-08-24T22:02:13.413Z,99748.56
2022-08-24T22:04:45.877Z,99744.28
2022-08-24T22:07:14.866Z,99742.75
2022-08-24T22:09:45.625Z,99752.19
2022-08-24T22:12:14.259Z,99745.28
2022-08-24T22:14:43.097Z,99744.56
2022-08-24T22:17:13.327Z,99746.41
2022-08-24T22:19:42.128Z,99752.44
2022-08-24T22:22:10.695Z,99737.84
2022-08-24T22:24:39.518Z,99743.16
2022-08-24T22:27:08.175Z,99733.69
2022-08-24T22:29:37.350Z,99738.25
2022-08-24T22:32:06.627Z,99736.56
2022-08-24T22:34:37.445Z,99734.13
2022-08-24T22:37:07.208Z,99735.03
2022-08-24T22:39:36.107Z,99737.00
2022-08-24T22:42:05.236Z,99737.00
2022-08-24T22:44:34.479Z,99730.09
2022-08-24T22:47:13.010Z,99725.03
2022-08-24T22:49:45.754Z,99716.31
2022-08-24T22:52:15.856Z,99710.34
2022-08-24T22:54:44.576Z,99700.06
2022-08-24T22:57:14.015Z,99699.31
2022-08-24T22:59:49.466Z,99699.47
2022-08-24T23:02:20.138Z,99696.06
2022-08-24T23:04:52.822Z,99687.50
2022-08-24T23:07:22.472Z,99680.66
2022-08-24T23:09:51.511Z,99689.47
2022-08-24T23:12:23.059Z,99690.31
2022-08-24T23:14:53.072Z,99689.69
2022-08-24T23:17:22.179Z,99691.44
2022-08-24T23:20:02.252Z,99694.19
2022-08-24T23:22:33.588Z,99693.41
2022-08-24T23:25:03.021Z,99697.06
2022-08-24T23:27:33.063Z,99693.56
2022-08-24T23:30:09.995Z,99695.44
2022-08-24T23:32:39.071Z,99689.47
2022-08-24T23:35:12.374Z,99693.81
2022-08-24T23:37:42.501Z,99691.22
2022-08-24T23:40:12.607Z,99691.31
2022-08-24T23:42:41.228Z,99692.28
2022-08-24T23:45:12.279Z,99701.81
2022-08-24T23:47:41.677Z,99697.72
2022-08-24T23:50:12.563Z,99704.09
2022-08-24T23:52:42.408Z,99701.66
2022-08-24T23:55:21.172Z,99698.31
2022-08-24T23:57:53.150Z,99692.47
